Aviation Digital Data Service (ADDS)

Output produced by METARs form (0100 UTC 22 September 2017)
found at http://www.aviationweather.gov/adds/metars/
 
RJSK 220000Z 14005KT 110V170 9999 FEW015 18/13 Q1018
TAF RJSK 212305Z 2200/2306 13007KT 9999 FEW040
       
RJKA 220000Z 23010KT 9999 FEW015 BKN150 30/26 Q1010
RJSA 220000Z VRB01KT 9999 FEW020 20/11 Q1018
TAF RJSA 212305Z 2200/2306 24005KT 9999 FEW030 SCT040 
     BECMG 2203/2205 02008KT
       
RJEC 220000Z VRB02KT 9999 FEW008 SCT/// 15/12 Q1018
TAF RJEC 212308Z 2200/2306 17005KT 9999 FEW030 
     BECMG 2202/2204 32006KT 
     BECMG 2212/2215 17005KT 
     BECMG 2300/2303 18015KT
       
RJFF 220030Z 31004KT 250V340 9999 FEW010 SCT120 BKN140 23/19 Q1011 RMK 1ST010 4AC120 6AC140 A2988
TAF RJFF 212307Z 2200/2306 11006KT 9000 -RA FEW010 SCT030 BKN040 
     BECMG 2207/2209 05005KT 
     BECMG 2215/2218 15003KT 
     BECMG 2300/2303 33008KT
       
RJSF 220000Z VRB02KT 9999 SCT035 BKN045 17/17 Q1020
TAF RJSF 212320Z 2200/2306 16007KT 9999 FEW020 BKN050 
     BECMG 2212/2215 35003KT 
     TEMPO 2215/2221 3000 SHRA BR FEW001 BKN003 BKN005 
     TEMPO 2221/2300 4000 -SHRA BR FEW001 BKN003 BKN005
       
ROTM 212359Z 20005KT 9999 FEW015 SCT050 SCT200 29/26 A2990 RMK SLP108 STNPR29595 T2 T02850262
TAF ROTM 2121/2221 VRB06KT 9999 SCT020 BKN200 QNH2985INS 
     FM220000 24010KT 9999 VCSH FEW015 BKN020 OVC200 QNH2988INS 
     TEMPO 2202/2208 3200 -TSRA BR FEW008 SCT015 BKN020CB 
     BECMG 2208/2210 VRB06KT 8000 -SHRA BR QNH2989INS 
     TEMPO 2208/2214 4800 SHRA BR 
     FM221730 VRB06KT 8000 -SHRA BR FEW015 BKN025 OVC200 QNH2992INS T26/2121Z T31/2202Z
       
RJCH 220000Z 20004KT 150V250 9999 FEW025 20/16 Q1018
TAF RJCH 212311Z 2200/2306 17005KT 9999 FEW030 
     BECMG 2200/2202 20007KT 
     BECMG 2206/2208 12012KT
       
RJSI 220000Z VRB02KT CAVOK 16/12 Q1020
RJOA 220000Z 07008KT 9999 -RA FEW020 BKN045 18/14 Q1014
TAF RJOA 212305Z 2200/2306 08008KT 8000 -RA FEW020 BKN045 
     BECMG 2212/2215 32004KT
       
RJOF 220037Z 06006KT 9999 FEW020 BKN040 BKN120 21/17 Q1012 RMK 1CU020 7SC040 7AS120 A2991
RJAH 220045Z 08010KT 9999 FEW020 SCT040 BKN250 24/17 Q1018 RMK 2CU020 3SC040 A3008
TAF RJAH 212305Z 2200/2306 08012KT 9999 FEW020 BKN040 
     TEMPO 2212/2215 4000 -SHRA BR FEW005 BKN008 
     TEMPO 2215/2300 3000 SHRA BR FEW005 BKN008
       
ROIG 220000Z 11003KT 060V170 9999 SCT012 BKN/// 29/26 Q1011
TAF ROIG 212313Z 2200/2306 18010KT 9999 FEW010 SCT020 
     TEMPO 2203/2206 3000 TSRA FEW008 BKN015 FEW020CB 
     TEMPO 2206/2209 4000 SHRA FEW008 BKN015 FEW020CB
       
RJOI 212355Z 04009KT 9999 -RA SCT030 BKN050 OVC100 21/17 A2992 RMK SLP130 P0000 60000 T02110172 10217 20178 50000
TAF RJOI 2121/2221 31006KT 9999 VCSH SCT010 BKN030 BKN130 BKN230 621409 622303 QNH2985INS 
     TEMPO 2121/2203 8000 -SHRA BR SCT010 BKN025 BKN130 OVC230 
     FM220600 03006KT 9999 VCSH SCT010 BKN030 BKN140 OVC220 621409 QNH2983INS 
     TEMPO 2206/2210 8000 -SHRA BR SCT010 BKN025 BKN140 OVC220 
     FM221000 VRB06KT 9000 BR FEW010 SCT020 BKN035 BKN200 600000 QNH2984INS 
     BECMG 2218/2220 9999 NSW SCT010 SCT0035 BKN200 QNH2988INS T24/2206Z T19/2220Z
       
RJOW 220000Z 17004KT 130V200 9999 FEW040 SCT100 BKN140 19/16 Q1013
RJAW 220000Z 14008KT 9999 SCT010 29/25 Q1015 RMK 4CU010 A3000
RJOC 220000Z 16005KT 9999 FEW040 SCT150 BKN/// 18/15 Q1013
TAF RJOC 212310Z 2200/2306 17005KT 9999 FEW035 
     BECMG 2200/2202 07012KT 
     BECMG 2209/2211 17005KT
       
RODN 220056Z AUTO 23012KT 10SM CLR 30/27 A2990 RMK AO2 SLP130 T03010272 $
TAF RODN 220000Z 2200/2306 18006KT 9999 SCT015 QNH2980INS 
     TEMPO 2202/2206 20010G15KT 4800 -TSRA BKN015CB TX31/2205Z TN26/2218Z
       
RJFK 220000Z 36003KT 330V030 8000 -SHRA BCFG FEW002 SCT010 BKN040 21/21 Q1010 RMK 1ST002 3ST010 5CU040 A2984 FG N-NE
TAF RJFK 212306Z 2200/2306 03005KT 8000 -SHRA FEW010 SCT020 BKN040 
     TEMPO 2200/2202 4000 -SHRA BR FEW002 BKN008 BKN015 
     BECMG 2202/2204 15005KT 
     BECMG 2210/2212 01005KT 
     TEMPO 2218/2221 3000 BR 
     BECMG 2300/2303 20006KT
       
RJFY 220004Z 07008KT 5000 -SHRA BR FEW005 SCT008 OVC015 FEW015CB 22/21 Q1009 RMK 2ST005 3ST008 8CU015 1CB015 A2982 CB 3KM E MOV E VIS VRB
RJBB 220030Z 08005KT 9999 FEW030 BKN060 BKN100 21/16 Q1014 NOSIG
TAF RJBB 212308Z 2200/2306 06006KT 9999 FEW025 BKN060 
     BECMG 2218/2221 30007KT
       
RJTR 212108Z 01004KT 7SM -SHRA BKN030 18/17 A3010 RMK WND/ALSTG ESTMD
RJTK 212135Z 35004KT 9999 FEW030 SCT080 20/18 Q1017 RMK 1CU030 4AC080 A3004
RJFR 220000Z 10014KT 060V150 9999 -SHRA FEW010 BKN013 BKN020 22/19 Q1011
TAF RJFR 212307Z 2200/2306 09011KT 7000 -SHRA FEW010 SCT015 BKN020 
     BECMG 2212/2215 30010KT
       
RJOK 220000Z 36003KT 8000 -SHRA FEW004 SCT035 BKN050 20/18 Q1014
TAF RJOK 212313Z 2200/2306 36005KT 8000 -SHRA FEW005 SCT020 BKN040 
     TEMPO 2200/2203 4000 SHRA BR 
     BECMG 2303/2306 18006KT
       
RJNK 220000Z VRB01KT 9999 FEW030 BKN250 20/14 Q1015
TAF RJNK 212306Z 2200/2306 36008KT 9999 FEW030 SCT060 
     BECMG 2212/2215 16004KT
       
RJFT 220048Z VRB03KT 4000 R07/P1800N -RA BR PRFG FEW001 SCT050 BKN100 21/21 Q1012 RMK 1ST001 3SC050 7AC100 A2989 1000SE-SW FG E-SW AND N-NE
TAF RJFT 212312Z 2200/2306 06006KT 8000 -SHRA FEW006 SCT015 BKN035 
     BECMG 2202/2204 21006KT 
     TEMPO 2206/2212 3000 BR FEW003 BKN005 BKN015 
     BECMG 2212/2215 01003KT 
     TEMPO 2212/2221 4000 BR FEW005 BKN008 BKN015 
     BECMG 2300/2303 32005KT
       
RJCK 220000Z 16003KT 070V250 CAVOK 19/13 Q1018
TAF RJCK 212309Z 2200/2306 19011KT 9999 FEW040 
     BECMG 2208/2210 03004KT 
     TEMPO 2209/2212 1500 BR FEW001 BKN003 
     TEMPO 2212/2221 0700 FG VV001 
     BECMG 2221/2300 17010KT 
     TEMPO 2221/2300 1500 BR FEW001 BKN003
       
RJAF 220000Z VRB01KT 9999 FEW030 BKN/// 16/13 Q1020
RJOM 220044Z 09004KT 050V130 7000 RA FEW008 SCT050 BKN080 21/18 Q1012 RMK 1ST008 4SC050 6AC080 A2990
TAF RJOM 212305Z 2200/2306 35009KT 9000 -RA FEW020 BKN045 
     TEMPO 2200/2203 4000 RA BR 
     BECMG 2212/2215 12004KT 
     BECMG 2300/2303 34007KT
       
RJCM 220000Z 21004KT 150V260 9999 FEW050 17/11 Q1018
TAF RJCM 212313Z 2200/2306 20005KT 9999 FEW040 
     BECMG 2202/2204 06006KT 
     BECMG 2208/2210 19012KT
       
RJOH 220000Z VRB01KT 9999 FEW080 SCT150 BKN230 20/16 Q1014
TAF RJOH 212305Z 2200/2306 06012KT 9999 FEW035 SCT060 
     BECMG 2209/2211 18005KT
       
ROMY 220000Z 19007KT 9999 SCT011 30/27 Q1011
RJFM 220023Z 36013KT 5000 -SHRA BR FEW003 SCT004 BKN007 22/21 Q1010 RMK 1ST003 3ST004 5ST007 A2983
TAF RJFM 212314Z 2200/2306 03013KT 7000 -SHRA FEW005 SCT010 BKN015 
     TEMPO 2200/2201 2000 TSRA BR FEW003 BKN005 BKN008 FEW020CB 
     TEMPO 2201/2203 3000 SHRA BR FEW003 BKN005 BKN008 
     TEMPO 2203/2206 4000 -SHRA BR FEW003 SCT005 BKN008 
     BECMG 2210/2212 28005KT 
     BECMG 2300/2303 04007KT
       
RJEB 220000Z 09003KT 040V160 9999 FEW060 20/11 Q1017
RJFU 220000Z 30006KT 240V330 7000 -RA FEW007 BKN010 BKN050 21/20 Q1011
TAF RJFU 212308Z 2200/2306 13003KT 9000 -RA FEW010 SCT025 
     BECMG 2202/2204 33005KT
       
ROAH 220030Z 20009KT 9999 FEW010 SCT/// 30/27 Q1012
TAF ROAH 212305Z 2200/2306 20011KT 9999 FEW010 SCT020 
     TEMPO 2203/2209 3000 TSRA FEW008 BKN015 FEW020CB
       
RJCN 220000Z 21004KT 180V260 9999 FEW030 19/12 Q1017
RJBD 220000Z 36004KT 7000 -SHRA FEW008 SCT030 BKN040 22/19 Q1015
RJCC 220030Z 16005KT 120V210 9999 FEW030 18/13 Q1018 RMK 1CU030 A3007
TAF RJCC 212305Z 2200/2306 18010KT 9999 FEW040 
     TEMPO 2212/2215 3000 BR 
     TEMPO 2215/2221 2000 BR FEW003 BKN005 
     TEMPO 2221/2300 4000 -SHRA BR FEW005 BKN007
       
RJAA 220030Z 14009KT 9999 FEW030 SCT035 27/18 Q1017 NOSIG RMK 1CU030 3CU035 A3006
TAF RJAA 212308Z 2200/2306 12010KT 9999 FEW020 BKN040 
     TEMPO 2212/2218 4000 -SHRA BR FEW005 BKN008 
     BECMG 2218/2221 02012KT FEW005 BKN008 
     TEMPO 2218/2300 3000 RA BR FEW003 BKN005 
     BECMG 2300/2303 FEW008 BKN015
       
RJSN 220000Z 03005KT 9999 FEW030 SCT/// 20/16 Q1016
TAF RJSN 212311Z 2200/2306 02006KT 9999 FEW030 
     BECMG 2208/2210 15012KT 
     BECMG 2303/2306 24008KT
       
RJCB 220000Z VRB01KT CAVOK 16/11 Q1018
TAF RJCB 212307Z 2200/2306 15006KT 9999 FEW040 
     BECMG 2210/2212 35004KT 
     TEMPO 2212/2215 2000 BR FEW003 BKN005 
     TEMPO 2215/2221 0700 FG VV001 
     TEMPO 2221/2300 1500 BR FEW002 BKN004 
     BECMG 2300/2303 15010KT
       
RJSR 220013Z VRB01KT 9999 FEW001 14/14 Q1018 RMK 1ST001 A3008
RJFO 220000Z 08011KT 8000 -SHRA FEW008 SCT010 BKN015 22/21 Q1012
TAF RJFO 212310Z 2200/2306 07012KT 7000 -SHRA FEW005 SCT010 BKN015 
     TEMPO 2200/2206 4000 -SHRA BR FEW003 SCT005 BKN009 
     BECMG 2210/2212 32008KT
       
RJOB 220000Z 05007KT 9999 FEW025 SCT060 BKN080 18/14 Q1014
TAF RJOB 212305Z 2200/2306 10007KT 7000 -RA FEW005 SCT030 BKN045 
     BECMG 2215/2218 30005KT
       
RJOO 220000Z 07007KT 030V100 9999 FEW025 BKN080 BKN100 22/14 Q1015 RMK 1CU025 5AC080 6AC100 A2998
TAF RJOO 212311Z 2200/2306 07007KT 9999 FEW030 SCT045 
     BECMG 2212/2215 32005KT 
     BECMG 2303/2306 22008KT
       
RJTO 220000Z 08005KT 010V170 9999 FEW015 SCT025 FEW030TCU BKN/// 26/20 Q1016
RJFS 220027Z 33005KT 290V360 6000 -RA FEW010 SCT060 BKN100 21/20 Q1011 RMK 1ST010 3SC060 5AC100 A2988
TAF AMD RJFS 220011Z 2200/2306 33005KT 8000 -RA FEW015 SCT040 
     BECMG 2200/2202 03006KT 
     TEMPO 2200/2202 4000 -RA BR 
     BECMG 2207/2209 28005KT 
     BECMG 2218/2221 03006KT 
     BECMG 2303/2306 22005KT
       
RJSS 220000Z VRB01KT 9999 FEW020 BKN050 19/16 Q1019
TAF RJSS 212305Z 2200/2306 34004KT 9999 FEW030 BKN050 
     BECMG 2200/2202 12008KT
       
RORS 220000Z 19004KT 160V230 9999 SCT009 30/27 Q1011
RJSY 220000Z 07010KT 9999 FEW010 20/14 Q1017
RJBT 220032Z 22003KT 180V250 8000 PRFG FEW000 SCT150 BKN/// 17/15 Q1015 RMK 1ST000 4AC150 A2998 FG BANK NW-E
RJOT 220000Z 13003KT 9999 FEW020 SCT060 BKN080 19/17 Q1014
TAF RJOT 212305Z 2200/2306 07006KT 7000 -RA FEW015 BKN045 
     TEMPO 2201/2204 4000 -RA BR 
     TEMPO 2215/2221 3000 BR BCFG FEW000 SCT005 BKN008 
     BECMG 2221/2300 29008KT
       
RJFG 220025Z 26007KT 6000 -RA FEW010 SCT025 BKN040 25/25 Q1010 RMK 1CU010 3CU025 5SC040 A2983
RJOS 220026Z 32004KT 9999 -RA FEW020 BKN045 OVC080 20/17 Q1014 RMK 1CU020 5SC045 8AS080 A2996
RJTT 220030Z 04007KT 9999 FEW020 BKN/// 25/19 Q1018 NOSIG
TAF RJTT 212311Z 2200/2306 03006KT 9999 FEW010 BKN025 
     BECMG 2203/2205 10014KT 
     TEMPO 2209/2215 4000 -SHRA BR FEW005 BKN008 
     TEMPO 2215/2300 3000 SHRA BR FEW005 BKN008 
     BECMG 2218/2221 01012KT 
     BECMG 2303/2306 08010KT
       
RJOR 220000Z 14008KT CAVOK 19/14 Q1014
RJNT 220000Z 16003KT 110V240 9999 FEW030 BKN/// 22/13 Q1015
TAF RJNT 212308Z 2200/2306 36006KT 9999 FEW030 
     BECMG 2210/2212 18004KT 
     BECMG 2300/2303 30006KT
       
RJDT 220000Z 08008KT 050V110 9999 FEW020 BKN/// 23/18 Q1012
RJTU 212138Z 03004KT 9999 FEW030 BKN035 BKN050 19/12 Q1019 RMK 1SC030 5SC035 6SC050 A3011
RJCW 220000Z 21014KT 9999 FEW010 SCT020 20/16 Q1016
RJSC 220000Z VRB01KT 9999 FEW030 17/13 Q1019
RJDC 220000Z 10015KT 9999 -RA FEW008 SCT010 BKN035 22/19 Q1011
RJOY 220000Z VRB01KT 9999 FEW030 BKN070 BKN090 21/14 Q1015
RJTY 220056Z AUTO 02005KT 10SM FEW055 22/17 A3014 RMK AO2 RAB06E15 SLP206 P0000 T02160165 FZRANO $
TAF RJTY 212100Z 2121/2303 VRB06KT 9999 SCT030 BKN200 QNH3004INS 
     BECMG 2203/2204 15009KT 9999 BKN030 QNH3001INS 
     BECMG 2205/2206 15009KT 6000 -SHRA BR SCT015 BKN025 QNH3000INS 
     BECMG 2210/2211 12010KT 6000 -SHRA BR FEW008 BKN015 QNH2999INS TX23/2205Z TN17/2218Z
       
ROYN 220037Z AUTO 18005KT 9999 FEW039 BKN050 BKN060 28/27 Q1011 RMK A2987
RORY 220000Z AUTO 23008KT 9999 NSC 30/27 Q1011